createdAt,value
2018-10-11T00:01:28.633Z,14.80
2018-10-11T00:03:56.925Z,14.53
2018-10-11T00:06:25.174Z,13.80
2018-10-11T00:08:53.463Z,15.50
2018-10-11T00:11:21.731Z,14.83
2018-10-11T00:13:50.827Z,14.77
2018-10-11T00:16:20.437Z,14.70
2018-10-11T00:18:48.701Z,14.33
2018-10-11T00:21:17.736Z,15.67
2018-10-11T00:23:45.982Z,15.27
2018-10-11T00:26:14.257Z,15.43
2018-10-11T00:28:42.511Z,14.83
2018-10-11T00:31:11.548Z,14.40
2018-10-11T00:33:39.971Z,15.10
2018-10-11T00:36:08.191Z,15.03
2018-10-11T00:38:36.467Z,15.37
2018-10-11T00:41:04.719Z,14.47
2018-10-11T00:43:32.983Z,14.07
2018-10-11T00:46:02.305Z,14.70
2018-10-11T00:48:31.119Z,14.40
2018-10-11T00:50:59.369Z,13.50
2018-10-11T00:53:27.642Z,13.23
2018-10-11T00:55:55.896Z,14.00
2018-10-11T00:58:24.938Z,13.50
2018-10-11T01:00:53.185Z,13.27
2018-10-11T01:03:21.457Z,12.50
2018-10-11T01:05:49.722Z,12.13
2018-10-11T01:08:17.992Z,12.23
2018-10-11T01:10:46.276Z,12.63
2018-10-11T01:13:14.536Z,12.50
2018-10-11T01:15:43.566Z,13.83
2018-10-11T01:18:12.519Z,13.47
2018-10-11T01:20:41.564Z,13.47
2018-10-11T01:23:09.833Z,12.70
2018-10-11T01:25:38.098Z,13.77
2018-10-11T01:28:06.624Z,12.20
2018-10-11T01:30:35.556Z,12.90
2018-10-11T01:33:03.779Z,13.27
2018-10-11T01:35:32.052Z,12.67
2018-10-11T01:38:00.313Z,12.47
2018-10-11T01:40:28.584Z,12.70
2018-10-11T01:42:56.863Z,12.27
2018-10-11T01:45:25.430Z,12.33
2018-10-11T01:47:53.691Z,12.13
2018-10-11T01:50:22.355Z,12.97
2018-10-11T01:52:51.411Z,13.20
2018-10-11T01:55:19.667Z,12.60
2018-10-11T01:57:47.935Z,12.70
2018-10-11T02:00:16.250Z,12.50
2018-10-11T02:02:44.523Z,12.47
2018-10-11T02:05:12.820Z,12.03
2018-10-11T02:07:41.826Z,11.57
2018-10-11T02:10:10.111Z,12.03
2018-10-11T02:12:38.383Z,12.20
2018-10-11T02:15:06.668Z,11.83
2018-10-11T02:17:34.943Z,12.30
2018-10-11T02:20:03.196Z,11.27
2018-10-11T02:22:31.445Z,7.97
2018-10-11T02:24:59.713Z,9.07
2018-10-11T02:27:27.975Z,8.73
2018-10-11T02:29:56.247Z,9.07
2018-10-11T02:32:24.499Z,9.23
2018-10-11T02:34:53.075Z,10.27
2018-10-11T02:37:21.330Z,10.73
2018-10-11T02:39:49.583Z,10.20
2018-10-11T02:42:18.969Z,11.03
2018-10-11T02:44:47.195Z,11.40
2018-10-11T02:47:15.458Z,10.87
2018-10-11T02:49:43.726Z,11.00
2018-10-11T02:52:11.990Z,11.67
2018-10-11T02:54:41.023Z,10.97
2018-10-11T02:57:09.293Z,10.53
2018-10-11T02:59:37.556Z,9.43
2018-10-11T03:02:05.813Z,9.97
2018-10-11T03:04:35.178Z,10.80
2018-10-11T03:07:03.421Z,9.77
2018-10-11T03:09:31.684Z,10.87
2018-10-11T03:11:59.949Z,11.00
2018-10-11T03:14:28.230Z,10.80
2018-10-11T03:16:56.806Z,11.53
2018-10-11T03:19:25.059Z,11.07
2018-10-11T03:21:54.084Z,11.03
2018-10-11T03:24:22.505Z,10.80
2018-10-11T03:26:50.741Z,10.60
2018-10-11T03:29:19.026Z,10.50
2018-10-11T03:31:47.330Z,10.67
2018-10-11T03:34:15.607Z,11.23
2018-10-11T03:36:44.150Z,11.80
2018-10-11T03:39:12.415Z,10.90
2018-10-11T03:41:40.703Z,10.37
2018-10-11T03:44:09.007Z,11.27
2018-10-11T03:46:37.360Z,8.80
2018-10-11T03:49:05.530Z,6.90
2018-10-11T03:51:33.801Z,6.03
2018-10-11T03:54:02.063Z,4.93
2018-10-11T03:56:30.310Z,5.80
2018-10-11T03:58:58.578Z,6.40
2018-10-11T04:01:27.163Z,6.40
2018-10-11T04:03:55.405Z,5.93
2018-10-11T04:06:23.926Z,6.27
2018-10-11T04:08:52.204Z,6.90
2018-10-11T04:11:20.464Z,8.13
2018-10-11T04:13:48.740Z,8.67
2018-10-11T04:16:16.988Z,9.90
2018-10-11T04:18:45.251Z,9.93
2018-10-11T04:21:13.503Z,10.53
2018-10-11T04:23:42.123Z,9.67
2018-10-11T04:26:10.383Z,9.40
2018-10-11T04:28:38.638Z,9.17
2018-10-11T04:31:06.903Z,9.10
2018-10-11T04:33:35.171Z,10.23
2018-10-11T04:36:04.268Z,9.53
2018-10-11T04:38:32.473Z,9.47
2018-10-11T04:41:00.762Z,10.60
2018-10-11T04:43:28.984Z,9.67
2018-10-11T04:45:57.234Z,10.77
2018-10-11T04:48:25.531Z,9.80
2018-10-11T04:50:54.562Z,9.93
2018-10-11T04:53:24.020Z,11.10
2018-10-11T04:55:53.938Z,13.00
2018-10-11T04:58:23.210Z,15.73
2018-10-11T05:00:51.486Z,19.00
2018-10-11T05:03:19.740Z,19.67
2018-10-11T05:05:48.033Z,20.93
2018-10-11T05:08:16.272Z,21.23
2018-10-11T05:10:45.122Z,22.50
2018-10-11T05:13:14.365Z,23.90
2018-10-11T05:15:42.635Z,22.33
2018-10-11T05:18:10.896Z,21.90
2018-10-11T05:20:39.184Z,21.93
2018-10-11T05:23:07.431Z,23.43
2018-10-11T05:25:36.475Z,24.33
2018-10-11T05:28:04.759Z,24.80
2018-10-11T05:30:32.991Z,25.93
2018-10-11T05:33:01.344Z,25.33
2018-10-11T05:35:29.596Z,25.90
2018-10-11T05:37:57.872Z,25.33
2018-10-11T05:40:26.123Z,26.53
2018-10-11T05:42:54.424Z,25.30
2018-10-11T05:45:22.702Z,28.00
2018-10-11T05:47:50.953Z,27.80
2018-10-11T05:50:19.242Z,27.63
2018-10-11T05:52:48.267Z,27.90
2018-10-11T05:55:17.339Z,27.90
2018-10-11T05:57:45.597Z,27.57
2018-10-11T06:00:14.656Z,28.13
2018-10-11T06:02:42.899Z,27.77
2018-10-11T06:05:11.933Z,27.93
2018-10-11T06:07:40.486Z,27.17
2018-10-11T06:10:09.529Z,27.47
2018-10-11T06:12:37.780Z,28.97
2018-10-11T06:15:06.054Z,29.47
2018-10-11T06:17:34.721Z,29.43
2018-10-11T06:20:03.215Z,31.43
2018-10-11T06:22:31.494Z,30.30
2018-10-11T06:24:59.746Z,31.20
2018-10-11T06:27:28.006Z,31.07
2018-10-11T06:29:57.098Z,29.87
2018-10-11T06:32:26.114Z,30.00
2018-10-11T06:34:54.391Z,30.20
2018-10-11T06:37:22.658Z,31.63
2018-10-11T06:39:50.921Z,32.10
2018-10-11T06:42:20.086Z,31.57
2018-10-11T06:44:48.223Z,30.87
2018-10-11T06:47:16.497Z,30.50
2018-10-11T06:49:44.793Z,30.63
2018-10-11T06:52:13.035Z,31.73
2018-10-11T06:54:41.294Z,31.60
2018-10-11T06:57:10.339Z,30.93
2018-10-11T06:59:38.624Z,31.43
2018-10-11T07:02:06.897Z,30.40
2018-10-11T07:04:35.182Z,31.63
2018-10-11T07:07:03.491Z,33.43
2018-10-11T07:09:32.015Z,30.63
2018-10-11T07:12:00.255Z,33.83
2018-10-11T07:14:28.511Z,33.00
2018-10-11T07:16:57.849Z,32.17
2018-10-11T07:19:26.215Z,33.33
2018-10-11T07:21:54.363Z,32.13
2018-10-11T07:24:23.496Z,32.90
2018-10-11T07:26:51.792Z,29.47
2018-10-11T07:31:54.782Z,32.93
2018-10-11T07:34:23.223Z,32.53
2018-10-11T07:36:52.266Z,31.50
2018-10-11T07:39:20.586Z,31.60
2018-10-11T07:41:49.651Z,32.23
2018-10-11T07:44:18.054Z,30.53
2018-10-11T07:46:47.075Z,32.53
2018-10-11T07:49:15.327Z,30.47
2018-10-11T07:51:44.364Z,29.67
2018-10-11T07:54:12.651Z,30.97
2018-10-11T07:56:40.919Z,31.30
2018-10-11T07:59:09.164Z,32.27
2018-10-11T08:01:37.502Z,31.03
2018-10-11T08:04:05.747Z,32.83
2018-10-11T08:06:34.018Z,30.67
2018-10-11T08:09:02.365Z,31.67
2018-10-11T08:11:30.702Z,32.53
2018-10-11T08:13:58.917Z,31.70
2018-10-11T08:16:28.017Z,31.73
2018-10-11T08:18:56.345Z,30.13
2018-10-11T08:21:24.892Z,31.60
2018-10-11T08:23:53.335Z,29.33
2018-10-11T08:26:22.795Z,31.27
2018-10-11T08:28:50.665Z,29.90
2018-10-11T08:31:18.915Z,31.50
2018-10-11T08:33:47.196Z,29.57
2018-10-11T08:36:15.448Z,29.40
2018-10-11T08:38:43.871Z,29.93
2018-10-11T08:41:12.016Z,28.97
2018-10-11T08:43:40.334Z,29.23
2018-10-11T08:46:08.544Z,29.73
2018-10-11T08:48:37.386Z,29.23
2018-10-11T08:51:05.659Z,28.53
2018-10-11T08:53:33.994Z,26.73
2018-10-11T08:56:02.307Z,28.43
2018-10-11T08:58:30.490Z,28.20
2018-10-11T09:00:58.834Z,26.93
2018-10-11T09:03:27.201Z,28.10
2018-10-11T09:05:55.408Z,26.37
2018-10-11T09:08:23.705Z,26.70
2018-10-11T09:10:52.892Z,27.83
2018-10-11T09:13:21.187Z,25.67
2018-10-11T09:15:50.194Z,25.47
2018-10-11T09:18:18.474Z,26.10
2018-10-11T09:20:46.741Z,24.60
2018-10-11T09:23:15.826Z,26.47
2018-10-11T09:25:44.084Z,25.97
2018-10-11T09:28:12.379Z,24.97
2018-10-11T09:30:41.492Z,25.43
2018-10-11T09:33:09.695Z,24.53
2018-10-11T09:35:38.032Z,25.07
2018-10-11T09:38:06.291Z,25.60
2018-10-11T09:40:35.334Z,24.33
2018-10-11T09:43:03.620Z,23.37
2018-10-11T09:45:31.923Z,24.27
2018-10-11T09:48:00.784Z,23.57
2018-10-11T09:50:29.071Z,22.83
2018-10-11T09:52:57.338Z,21.77
2018-10-11T09:55:25.878Z,21.60
2018-10-11T09:57:54.138Z,21.60
2018-10-11T10:00:23.173Z,20.70
2018-10-11T10:02:51.454Z,19.30
2018-10-11T10:05:19.727Z,19.13
2018-10-11T10:07:48.050Z,19.53
2018-10-11T10:10:17.104Z,19.40
2018-10-11T10:12:45.398Z,19.00
2018-10-11T10:15:13.651Z,18.53
2018-10-11T10:17:41.907Z,18.53
2018-10-11T10:20:10.670Z,18.27
2018-10-11T10:22:39.395Z,20.27
2018-10-11T10:25:07.654Z,19.20
2018-10-11T10:27:35.922Z,20.07
2018-10-11T10:30:04.203Z,18.20
2018-10-11T10:32:32.546Z,18.33
2018-10-11T10:35:01.591Z,17.43
2018-10-11T10:37:29.982Z,16.90
2018-10-11T10:39:58.354Z,16.67
2018-10-11T10:42:27.382Z,16.30
2018-10-11T10:44:55.650Z,16.23
2018-10-11T10:47:23.923Z,14.97
2018-10-11T10:49:52.209Z,15.07
2018-10-11T10:52:21.304Z,14.07
2018-10-11T10:54:50.342Z,13.07
2018-10-11T10:57:18.587Z,13.63
2018-10-11T10:59:47.598Z,13.17
2018-10-11T11:02:15.872Z,12.33
2018-10-11T11:04:44.138Z,14.03
2018-10-11T11:07:12.423Z,13.00
2018-10-11T11:09:41.742Z,12.23
2018-10-11T11:12:09.979Z,12.63
2018-10-11T11:14:38.234Z,11.73
2018-10-11T11:17:06.523Z,10.67
2018-10-11T11:19:35.613Z,11.40
2018-10-11T11:22:04.644Z,10.80
2018-10-11T11:24:32.909Z,12.13
2018-10-11T11:27:01.199Z,12.60
2018-10-11T11:29:29.475Z,12.87
2018-10-11T11:31:57.742Z,11.13
2018-10-11T11:34:26.251Z,11.80
2018-10-11T11:36:54.528Z,12.13
2018-10-11T11:41:57.425Z,13.33
2018-10-11T11:44:25.941Z,11.50
2018-10-11T11:46:54.220Z,11.30
2018-10-11T11:49:22.469Z,11.23
2018-10-11T11:51:50.763Z,10.93
2018-10-11T11:54:19.781Z,9.73
2018-10-11T11:56:49.059Z,8.53
2018-10-11T11:59:18.131Z,10.50
2018-10-11T12:01:46.360Z,9.93
2018-10-11T12:04:14.614Z,9.20
2018-10-11T12:06:43.667Z,8.97
2018-10-11T12:09:11.943Z,8.80
2018-10-11T12:11:40.220Z,8.77
2018-10-11T12:14:08.735Z,8.03
2018-10-11T12:16:37.837Z,8.20
2018-10-11T12:19:06.863Z,8.37
2018-10-11T12:21:35.168Z,8.17
2018-10-11T12:24:03.463Z,9.43
2018-10-11T12:26:32.531Z,8.93
2018-10-11T12:29:00.878Z,9.43
2018-10-11T12:31:29.078Z,9.53
2018-10-11T12:33:57.342Z,9.30
2018-10-11T12:36:26.429Z,8.87
2018-10-11T12:38:55.589Z,8.83
2018-10-11T12:41:23.721Z,8.57
2018-10-11T12:43:52.212Z,9.70
2018-10-11T12:46:20.478Z,9.30
2018-10-11T12:48:48.754Z,7.77
2018-10-11T12:51:17.033Z,7.93
2018-10-11T12:53:48.532Z,7.60
2018-10-11T12:56:13.618Z,8.70
2018-10-11T12:58:41.874Z,8.07
2018-10-11T13:01:10.131Z,8.50
2018-10-11T13:03:38.391Z,8.33
2018-10-11T13:06:06.752Z,8.73
2018-10-11T13:08:35.856Z,8.67
2018-10-11T13:11:04.097Z,9.10
2018-10-11T13:13:32.395Z,8.17
2018-10-11T13:16:03.355Z,8.00
2018-10-11T13:18:28.922Z,8.30
2018-10-11T13:20:57.199Z,8.57
2018-10-11T13:23:25.454Z,8.27
2018-10-11T13:25:54.480Z,8.07
2018-10-11T13:28:22.763Z,8.03
2018-10-11T13:30:51.080Z,7.80
2018-10-11T13:33:19.334Z,8.27
2018-10-11T13:35:48.382Z,7.87
2018-10-11T13:38:16.632Z,8.00
2018-10-11T13:40:45.031Z,7.47
2018-10-11T13:43:13.969Z,8.00
2018-10-11T13:45:42.202Z,8.07
2018-10-11T13:48:10.541Z,7.47
2018-10-11T13:50:38.824Z,8.10
2018-10-11T13:53:07.132Z,8.90
2018-10-11T13:55:35.334Z,9.07
2018-10-11T13:58:03.620Z,8.73
2018-10-11T14:00:31.891Z,8.43
2018-10-11T14:03:00.136Z,7.83
2018-10-11T14:05:28.400Z,7.40
2018-10-11T14:07:57.423Z,7.67
2018-10-11T14:10:25.710Z,8.17
2018-10-11T14:12:53.966Z,8.37
2018-10-11T14:15:22.271Z,8.63
2018-10-11T14:17:50.612Z,7.73
2018-10-11T14:20:18.813Z,8.63
2018-10-11T14:22:47.069Z,7.87
2018-10-11T14:25:15.335Z,8.10
2018-10-11T14:27:43.646Z,7.67
2018-10-11T14:30:11.923Z,8.00
2018-10-11T14:32:40.196Z,8.37
2018-10-11T14:35:08.505Z,7.80
2018-10-11T14:37:36.751Z,7.57
2018-10-11T14:40:05.004Z,7.63
2018-10-11T14:42:33.308Z,7.63
2018-10-11T14:45:01.541Z,7.63
2018-10-11T14:47:29.818Z,8.00
2018-10-11T14:49:58.099Z,8.23
2018-10-11T14:52:26.359Z,7.73
2018-10-11T14:54:54.611Z,8.17
2018-10-11T14:57:23.727Z,7.97
2018-10-11T14:59:51.899Z,8.20
2018-10-11T15:02:20.217Z,8.20
2018-10-11T15:04:48.484Z,7.73
2018-10-11T15:07:16.742Z,7.73
2018-10-11T15:09:45.032Z,7.30
2018-10-11T15:12:13.280Z,7.60
2018-10-11T15:14:41.573Z,7.63
2018-10-11T15:17:09.903Z,7.63
2018-10-11T15:19:38.906Z,8.20
2018-10-11T15:22:07.167Z,7.80
2018-10-11T15:24:36.204Z,7.87
2018-10-11T15:27:04.474Z,8.30
2018-10-11T15:29:32.898Z,7.90
2018-10-11T15:32:01.894Z,7.50
2018-10-11T15:34:30.171Z,8.33
2018-10-11T15:36:58.410Z,7.97
2018-10-11T15:39:26.695Z,8.40
2018-10-11T15:41:54.943Z,9.10
2018-10-11T15:44:23.211Z,8.20
2018-10-11T15:46:51.691Z,9.40
2018-10-11T15:49:19.908Z,8.47
2018-10-11T15:51:48.540Z,8.53
2018-10-11T15:54:17.543Z,7.67
2018-10-11T15:56:45.826Z,8.30
2018-10-11T15:59:14.097Z,8.33
2018-10-11T16:01:42.379Z,8.17
2018-10-11T16:04:10.664Z,8.30
2018-10-11T16:06:38.913Z,7.90
2018-10-11T16:09:07.245Z,8.40
2018-10-11T16:11:35.474Z,8.57
2018-10-11T16:14:03.734Z,8.73
2018-10-11T16:16:32.025Z,8.87
2018-10-11T16:19:00.363Z,9.43
2018-10-11T16:21:28.971Z,8.60
2018-10-11T16:23:57.260Z,9.40
2018-10-11T16:26:25.563Z,8.93
2018-10-11T16:28:53.839Z,8.40
2018-10-11T16:31:22.099Z,9.13
2018-10-11T16:33:50.376Z,8.63
2018-10-11T16:36:18.646Z,11.60
2018-10-11T16:38:46.910Z,11.77
2018-10-11T16:41:15.181Z,10.03
2018-10-11T16:43:43.500Z,9.50
2018-10-11T16:46:12.866Z,9.13
2018-10-11T16:48:41.132Z,10.23
2018-10-11T16:51:09.402Z,9.57
2018-10-11T16:53:37.686Z,9.90
2018-10-11T16:56:05.950Z,9.93
2018-10-11T16:58:34.212Z,9.50
2018-10-11T17:01:03.341Z,9.20
2018-10-11T17:03:31.624Z,9.63
2018-10-11T17:05:59.910Z,9.00
2018-10-11T17:08:28.303Z,9.50
2018-10-11T17:10:56.582Z,9.27
2018-10-11T17:13:24.841Z,9.97
2018-10-11T17:15:53.124Z,10.13
2018-10-11T17:18:21.382Z,9.33
2018-10-11T17:20:49.702Z,9.17
2018-10-11T17:23:19.183Z,9.70
2018-10-11T17:25:47.449Z,10.10
2018-10-11T17:28:17.247Z,9.37
2018-10-11T17:30:45.865Z,10.00
2018-10-11T17:33:14.110Z,10.33
2018-10-11T17:35:42.419Z,10.03
2018-10-11T17:38:10.711Z,10.37
2018-10-11T17:40:39.775Z,9.07
2018-10-11T17:43:08.059Z,10.27
2018-10-11T17:45:36.326Z,9.20
2018-10-11T17:48:04.603Z,9.43
2018-10-11T17:50:32.848Z,8.80
2018-10-11T17:53:01.129Z,9.27
2018-10-11T17:55:30.178Z,9.80
2018-10-11T17:57:58.786Z,9.30
2018-10-11T18:00:27.047Z,9.77
2018-10-11T18:02:58.046Z,9.07
2018-10-11T18:05:27.247Z,9.50
2018-10-11T18:07:55.490Z,9.03
2018-10-11T18:10:23.795Z,9.53
2018-10-11T18:12:52.157Z,10.13
2018-10-11T18:15:20.450Z,10.80
2018-10-11T18:17:49.534Z,10.73
2018-10-11T18:20:17.826Z,10.87
2018-10-11T18:22:46.907Z,10.37
2018-10-11T18:25:15.197Z,10.57
2018-10-11T18:27:44.253Z,10.70
2018-10-11T18:30:12.525Z,11.33
2018-10-11T18:32:40.895Z,12.23
2018-10-11T18:35:09.186Z,12.07
2018-10-11T18:37:37.463Z,11.80
2018-10-11T18:40:05.793Z,11.80
2018-10-11T18:42:34.819Z,11.90
2018-10-11T18:45:03.150Z,11.80
2018-10-11T18:47:32.227Z,11.20
2018-10-11T18:50:00.515Z,12.77
2018-10-11T18:52:29.703Z,11.67
2018-10-11T18:54:57.992Z,11.73
2018-10-11T18:57:27.057Z,10.73
2018-10-11T18:59:55.352Z,11.70
2018-10-11T19:02:23.746Z,10.63
2018-10-11T19:04:52.022Z,10.37
2018-10-11T19:07:20.301Z,10.87
2018-10-11T19:09:48.819Z,11.33
2018-10-11T19:12:17.168Z,10.77
2018-10-11T19:14:46.209Z,10.63
2018-10-11T19:17:14.492Z,10.83
2018-10-11T19:19:42.800Z,11.30
2018-10-11T19:22:11.194Z,10.20
2018-10-11T19:24:39.471Z,10.57
2018-10-11T19:27:07.770Z,11.23
2018-10-11T19:29:36.131Z,11.57
2018-10-11T19:32:04.405Z,10.90
2018-10-11T19:34:32.852Z,11.57
2018-10-11T19:37:02.003Z,9.73
2018-10-11T19:39:30.464Z,9.77
2018-10-11T19:41:58.686Z,10.80
2018-10-11T19:44:26.998Z,11.20
2018-10-11T19:46:55.303Z,11.27
2018-10-11T19:49:24.355Z,10.90
2018-10-11T19:51:52.606Z,10.53
2018-10-11T19:54:21.650Z,10.23
2018-10-11T19:56:49.927Z,10.60
2018-10-11T19:59:18.261Z,10.37
2018-10-11T20:01:47.366Z,10.50
2018-10-11T20:04:15.665Z,9.73
2018-10-11T20:06:43.959Z,10.67
2018-10-11T20:09:12.232Z,10.03
2018-10-11T20:11:40.546Z,10.63
2018-10-11T20:14:09.611Z,9.50
2018-10-11T20:16:37.923Z,10.30
2018-10-11T20:19:06.204Z,10.17
2018-10-11T20:21:34.517Z,10.30
2018-10-11T20:24:02.782Z,10.47
2018-10-11T20:26:31.166Z,10.83
2018-10-11T20:29:00.161Z,10.07
2018-10-11T20:31:28.438Z,9.50
2018-10-11T20:33:56.723Z,10.23
2018-10-11T20:36:25.034Z,10.50
2018-10-11T20:38:53.290Z,10.70
2018-10-11T20:41:22.343Z,10.63
2018-10-11T20:43:50.642Z,10.10
2018-10-11T20:46:18.870Z,10.20
2018-10-11T20:48:47.916Z,10.10
2018-10-11T20:51:16.304Z,10.43
2018-10-11T20:53:44.446Z,10.53
2018-10-11T20:56:12.716Z,11.03
2018-10-11T20:58:40.991Z,10.63
2018-10-11T21:01:09.244Z,10.13
2018-10-11T21:03:38.282Z,10.10
2018-10-11T21:06:06.543Z,10.57
2018-10-11T21:08:34.910Z,9.97
2018-10-11T21:11:03.159Z,10.20
2018-10-11T21:13:32.483Z,10.10
2018-10-11T21:16:00.736Z,10.60
2018-10-11T21:18:29.798Z,10.40
2018-10-11T21:20:58.063Z,10.63
2018-10-11T21:23:26.375Z,10.20
2018-10-11T21:25:54.610Z,10.53
2018-10-11T21:28:23.428Z,10.10
2018-10-11T21:30:51.669Z,10.03
2018-10-11T21:33:19.950Z,9.97
2018-10-11T21:35:49.151Z,10.70
2018-10-11T21:38:17.481Z,11.40
2018-10-11T21:40:45.758Z,10.43
2018-10-11T21:43:14.010Z,11.33
2018-10-11T21:45:43.054Z,10.53
2018-10-11T21:48:11.339Z,10.70
2018-10-11T21:50:39.586Z,9.83
2018-10-11T21:53:07.871Z,10.37
2018-10-11T21:55:36.147Z,9.90
2018-10-11T21:58:04.406Z,10.53
2018-10-11T22:00:32.902Z,10.73
2018-10-11T22:03:01.167Z,9.90
2018-10-11T22:05:29.442Z,10.73
2018-10-11T22:07:57.692Z,10.33
2018-10-11T22:10:25.976Z,9.93
2018-10-11T22:12:54.991Z,9.93
2018-10-11T22:15:23.772Z,10.87
2018-10-11T22:17:52.063Z,9.57
2018-10-11T22:20:20.326Z,10.20
2018-10-11T22:22:48.618Z,10.97
2018-10-11T22:25:16.917Z,11.33
2018-10-11T22:27:45.170Z,10.03
2018-10-11T22:30:13.433Z,9.90
2018-10-11T22:32:41.858Z,9.67
2018-10-11T22:35:10.103Z,10.03
2018-10-11T22:37:38.392Z,10.57
2018-10-11T22:40:06.713Z,10.93
2018-10-11T22:42:36.463Z,10.90
2018-10-11T22:45:04.736Z,11.43
2018-10-11T22:47:32.998Z,11.10
2018-10-11T22:50:01.591Z,10.30
2018-10-11T22:52:29.990Z,10.90
2018-10-11T22:54:58.273Z,10.47
2018-10-11T22:57:26.580Z,11.30
2018-10-11T22:59:55.637Z,10.97
2018-10-11T23:02:23.910Z,10.73
2018-10-11T23:04:52.219Z,11.07
2018-10-11T23:07:21.257Z,11.07
2018-10-11T23:09:49.530Z,10.60
2018-10-11T23:12:17.813Z,11.50
2018-10-11T23:14:46.329Z,11.17
2018-10-11T23:17:14.364Z,11.03
2018-10-11T23:19:42.651Z,11.80
2018-10-11T23:22:11.780Z,11.77
2018-10-11T23:24:40.842Z,11.27
2018-10-11T23:27:09.129Z,12.83
2018-10-11T23:29:37.473Z,12.63
2018-10-11T23:32:05.710Z,11.83
2018-10-11T23:34:34.847Z,12.87
2018-10-11T23:37:03.106Z,12.27
2018-10-11T23:39:31.371Z,11.50
2018-10-11T23:41:59.646Z,11.80
2018-10-11T23:44:27.980Z,11.83
2018-10-11T23:46:56.287Z,11.43
2018-10-11T23:49:24.575Z,12.20
2018-10-11T23:51:52.900Z,11.97
2018-10-11T23:54:21.225Z,13.43
2018-10-11T23:56:49.502Z,11.23
2018-10-11T23:59:17.960Z,12.80
